sensor_id;sensor_type;location;lat;lon;timestamp;P1;durP1;ratioP1;P2;durP2;ratioP2
23402;SDS011;11874;48.228;11.684;2023-06-26T06:40:50;10.60;;;6.10;;
23402;SDS011;11874;48.228;11.684;2023-06-26T06:43:18;10.43;;;6.80;;
23402;SDS011;11874;48.228;11.684;2023-06-26T06:45:46;8.38;;;5.63;;
23402;SDS011;11874;48.228;11.684;2023-06-26T06:48:14;9.32;;;6.03;;
23402;SDS011;11874;48.228;11.684;2023-06-26T06:50:42;9.52;;;6.18;;
23402;SDS011;11874;48.228;11.684;2023-06-26T06:53:10;10.15;;;5.63;;
23402;SDS011;11874;48.228;11.684;2023-06-26T06:55:38;7.68;;;4.43;;
23402;SDS011;11874;48.228;11.684;2023-06-26T06:58:07;7.63;;;5.50;;
23402;SDS011;11874;48.228;11.684;2023-06-26T07:00:35;8.43;;;5.53;;
23402;SDS011;11874;48.228;11.684;2023-06-26T07:03:04;8.57;;;5.78;;
23402;SDS011;11874;48.228;11.684;2023-06-26T07:05:31;7.80;;;5.22;;
23402;SDS011;11874;48.228;11.684;2023-06-26T07:07:59;11.50;;;5.78;;
23402;SDS011;11874;48.228;11.684;2023-06-26T07:10:28;8.25;;;5.78;;
23402;SDS011;11874;48.228;11.684;2023-06-26T07:12:56;7.80;;;5.55;;
23402;SDS011;11874;48.228;11.684;2023-06-26T07:15:25;8.88;;;5.25;;
23402;SDS011;11874;48.228;11.684;2023-06-26T07:17:53;6.63;;;4.90;;
23402;SDS011;11874;48.228;11.684;2023-06-26T07:20:21;7.88;;;5.30;;
23402;SDS011;11874;48.228;11.684;2023-06-26T07:22:50;10.20;;;5.13;;
23402;SDS011;11874;48.228;11.684;2023-06-26T07:25:18;6.40;;;4.85;;
23402;SDS011;11874;48.228;11.684;2023-06-26T07:27:46;6.10;;;4.82;;
23402;SDS011;11874;48.228;11.684;2023-06-26T07:30:14;7.43;;;5.25;;
23402;SDS011;11874;48.228;11.684;2023-06-26T07:32:44;7.07;;;4.40;;
23402;SDS011;11874;48.228;11.684;2023-06-26T07:35:12;7.35;;;5.43;;
23402;SDS011;11874;48.228;11.684;2023-06-26T07:37:40;6.28;;;4.90;;
23402;SDS011;11874;48.228;11.684;2023-06-26T07:40:08;8.88;;;4.95;;
23402;SDS011;11874;48.228;11.684;2023-06-26T07:42:37;9.88;;;5.28;;
23402;SDS011;11874;48.228;11.684;2023-06-26T07:45:06;6.20;;;4.57;;
23402;SDS011;11874;48.228;11.684;2023-06-26T07:47:37;7.23;;;4.90;;
23402;SDS011;11874;48.228;11.684;2023-06-26T07:50:06;7.80;;;4.93;;
23402;SDS011;11874;48.228;11.684;2023-06-26T07:52:35;7.72;;;5.30;;
23402;SDS011;11874;48.228;11.684;2023-06-26T07:55:03;7.20;;;5.22;;
23402;SDS011;11874;48.228;11.684;2023-06-26T07:57:32;7.55;;;5.03;;
23402;SDS011;11874;48.228;11.684;2023-06-26T08:00:00;5.97;;;5.10;;
23402;SDS011;11874;48.228;11.684;2023-06-26T08:02:28;7.70;;;4.57;;
23402;SDS011;11874;48.228;11.684;2023-06-26T08:04:56;7.60;;;5.47;;
23402;SDS011;11874;48.228;11.684;2023-06-26T08:07:25;6.97;;;5.55;;
23402;SDS011;11874;48.228;11.684;2023-06-26T08:09:53;7.22;;;5.25;;
23402;SDS011;11874;48.228;11.684;2023-06-26T08:12:21;8.48;;;5.68;;
23402;SDS011;11874;48.228;11.684;2023-06-26T08:14:49;8.02;;;5.20;;
23402;SDS011;11874;48.228;11.684;2023-06-26T08:17:17;6.95;;;5.15;;
23402;SDS011;11874;48.228;11.684;2023-06-26T08:19:44;8.35;;;5.38;;
23402;SDS011;11874;48.228;11.684;2023-06-26T08:22:12;5.78;;;4.72;;
23402;SDS011;11874;48.228;11.684;2023-06-26T08:24:42;8.25;;;6.22;;
23402;SDS011;11874;48.228;11.684;2023-06-26T08:27:09;7.65;;;4.95;;
23402;SDS011;11874;48.228;11.684;2023-06-26T08:29:37;5.95;;;4.78;;
23402;SDS011;11874;48.228;11.684;2023-06-26T08:32:05;5.97;;;5.07;;
23402;SDS011;11874;48.228;11.684;2023-06-26T08:34:33;8.13;;;5.40;;
23402;SDS011;11874;48.228;11.684;2023-06-26T08:37:01;6.90;;;5.45;;
23402;SDS011;11874;48.228;11.684;2023-06-26T08:39:30;7.45;;;5.05;;
23402;SDS011;11874;48.228;11.684;2023-06-26T08:42:00;7.32;;;5.43;;
23402;SDS011;11874;48.228;11.684;2023-06-26T08:44:29;7.70;;;5.70;;
23402;SDS011;11874;48.228;11.684;2023-06-26T08:46:58;7.30;;;5.20;;
23402;SDS011;11874;48.228;11.684;2023-06-26T08:49:28;7.70;;;5.50;;
23402;SDS011;11874;48.228;11.684;2023-06-26T08:52:02;6.95;;;4.72;;
23402;SDS011;11874;48.228;11.684;2023-06-26T08:54:46;6.97;;;5.45;;
23402;SDS011;11874;48.228;11.684;2023-06-26T08:57:18;5.97;;;4.85;;
23402;SDS011;11874;48.228;11.684;2023-06-26T08:59:48;6.65;;;5.20;;
23402;SDS011;11874;48.228;11.684;2023-06-26T09:02:16;6.00;;;4.95;;
23402;SDS011;11874;48.228;11.684;2023-06-26T09:04:45;7.75;;;5.88;;
23402;SDS011;11874;48.228;11.684;2023-06-26T09:07:14;6.68;;;5.05;;
23402;SDS011;11874;48.228;11.684;2023-06-26T09:09:42;6.68;;;4.93;;
23402;SDS011;11874;48.228;11.684;2023-06-26T09:12:11;5.22;;;4.55;;
23402;SDS011;11874;48.228;11.684;2023-06-26T09:14:40;7.07;;;4.22;;
23402;SDS011;11874;48.228;11.684;2023-06-26T09:17:09;5.30;;;4.55;;
23402;SDS011;11874;48.228;11.684;2023-06-26T09:19:37;5.97;;;4.78;;
23402;SDS011;11874;48.228;11.684;2023-06-26T09:22:10;7.78;;;5.20;;
23402;SDS011;11874;48.228;11.684;2023-06-26T09:24:40;6.25;;;4.78;;
23402;SDS011;11874;48.228;11.684;2023-06-26T09:27:08;6.95;;;4.55;;
23402;SDS011;11874;48.228;11.684;2023-06-26T09:29:36;6.65;;;4.88;;
23402;SDS011;11874;48.228;11.684;2023-06-26T09:32:08;7.63;;;5.05;;
23402;SDS011;11874;48.228;11.684;2023-06-26T09:34:36;5.75;;;4.60;;
23402;SDS011;11874;48.228;11.684;2023-06-26T09:37:08;5.68;;;4.57;;
23402;SDS011;11874;48.228;11.684;2023-06-26T09:39:39;5.35;;;4.40;;
23402;SDS011;11874;48.228;11.684;2023-06-26T09:42:07;9.20;;;4.63;;
23402;SDS011;11874;48.228;11.684;2023-06-26T09:44:35;7.97;;;4.30;;
23402;SDS011;11874;48.228;11.684;2023-06-26T09:47:05;8.10;;;4.70;;
23402;SDS011;11874;48.228;11.684;2023-06-26T09:49:35;4.82;;;4.22;;
23402;SDS011;11874;48.228;11.684;2023-06-26T09:52:05;7.10;;;4.80;;
23402;SDS011;11874;48.228;11.684;2023-06-26T09:54:34;5.60;;;4.55;;
23402;SDS011;11874;48.228;11.684;2023-06-26T09:57:08;5.85;;;3.97;;
23402;SDS011;11874;48.228;11.684;2023-06-26T09:59:37;4.97;;;4.00;;
23402;SDS011;11874;48.228;11.684;2023-06-26T10:02:05;6.50;;;4.35;;
23402;SDS011;11874;48.228;11.684;2023-06-26T10:04:34;5.72;;;4.65;;
23402;SDS011;11874;48.228;11.684;2023-06-26T10:07:04;4.85;;;3.85;;
23402;SDS011;11874;48.228;11.684;2023-06-26T10:09:34;5.65;;;4.47;;
23402;SDS011;11874;48.228;11.684;2023-06-26T10:12:06;5.57;;;4.10;;
23402;SDS011;11874;48.228;11.684;2023-06-26T10:14:37;6.30;;;4.47;;
23402;SDS011;11874;48.228;11.684;2023-06-26T10:17:10;5.47;;;4.22;;
23402;SDS011;11874;48.228;11.684;2023-06-26T10:19:41;5.00;;;4.15;;
23402;SDS011;11874;48.228;11.684;2023-06-26T10:22:11;5.22;;;4.53;;
23402;SDS011;11874;48.228;11.684;2023-06-26T10:24:42;5.30;;;4.47;;
23402;SDS011;11874;48.228;11.684;2023-06-26T10:27:14;6.03;;;4.60;;
23402;SDS011;11874;48.228;11.684;2023-06-26T10:29:44;4.68;;;4.03;;
23402;SDS011;11874;48.228;11.684;2023-06-26T10:32:14;5.80;;;3.78;;
23402;SDS011;11874;48.228;11.684;2023-06-26T10:34:45;4.35;;;3.90;;
23402;SDS011;11874;48.228;11.684;2023-06-26T10:37:13;5.35;;;4.40;;
23402;SDS011;11874;48.228;11.684;2023-06-26T10:39:47;4.72;;;4.18;;
23402;SDS011;11874;48.228;11.684;2023-06-26T10:42:16;4.70;;;4.03;;
23402;SDS011;11874;48.228;11.684;2023-06-26T10:44:46;7.88;;;3.92;;
23402;SDS011;11874;48.228;11.684;2023-06-26T10:47:30;5.28;;;4.60;;
23402;SDS011;11874;48.228;11.684;2023-06-26T10:55:47;4.40;;;3.65;;
23402;SDS011;11874;48.228;11.684;2023-06-26T10:58:32;6.63;;;4.22;;
23402;SDS011;11874;48.228;11.684;2023-06-26T11:01:13;5.68;;;4.07;;
23402;SDS011;11874;48.228;11.684;2023-06-26T11:03:44;3.97;;;3.58;;
23402;SDS011;11874;48.228;11.684;2023-06-26T11:06:15;3.95;;;3.53;;
23402;SDS011;11874;48.228;11.684;2023-06-26T11:08:45;5.15;;;4.03;;
23402;SDS011;11874;48.228;11.684;2023-06-26T11:11:14;6.03;;;4.05;;
23402;SDS011;11874;48.228;11.684;2023-06-26T11:13:44;6.20;;;4.80;;
23402;SDS011;11874;48.228;11.684;2023-06-26T11:16:15;4.40;;;4.00;;
23402;SDS011;11874;48.228;11.684;2023-06-26T11:18:53;4.75;;;4.25;;
23402;SDS011;11874;48.228;11.684;2023-06-26T11:21:29;5.03;;;4.18;;
23402;SDS011;11874;48.228;11.684;2023-06-26T11:23:58;5.85;;;3.85;;
23402;SDS011;11874;48.228;11.684;2023-06-26T11:26:28;5.10;;;4.10;;
23402;SDS011;11874;48.228;11.684;2023-06-26T11:28:56;4.88;;;4.38;;
23402;SDS011;11874;48.228;11.684;2023-06-26T11:31:25;4.85;;;4.30;;
23402;SDS011;11874;48.228;11.684;2023-06-26T11:33:54;5.65;;;4.30;;
23402;SDS011;11874;48.228;11.684;2023-06-26T11:36:24;5.60;;;4.13;;
23402;SDS011;11874;48.228;11.684;2023-06-26T11:38:54;4.90;;;4.15;;
23402;SDS011;11874;48.228;11.684;2023-06-26T11:41:24;4.45;;;4.05;;
23402;SDS011;11874;48.228;11.684;2023-06-26T11:43:55;5.07;;;4.43;;
23402;SDS011;11874;48.228;11.684;2023-06-26T11:46:30;5.07;;;4.35;;
23402;SDS011;11874;48.228;11.684;2023-06-26T11:49:05;5.32;;;4.60;;
23402;SDS011;11874;48.228;11.684;2023-06-26T11:51:34;5.50;;;4.45;;
23402;SDS011;11874;48.228;11.684;2023-06-26T11:54:05;5.30;;;4.43;;
23402;SDS011;11874;48.228;11.684;2023-06-26T11:56:34;6.47;;;4.90;;
23402;SDS011;11874;48.228;11.684;2023-06-26T11:59:03;5.18;;;4.68;;
23402;SDS011;11874;48.228;11.684;2023-06-26T12:01:37;5.38;;;4.88;;
23402;SDS011;11874;48.228;11.684;2023-06-26T12:04:07;6.65;;;4.75;;
23402;SDS011;11874;48.228;11.684;2023-06-26T12:06:37;5.38;;;4.78;;
23402;SDS011;11874;48.228;11.684;2023-06-26T12:09:18;5.68;;;4.70;;
23402;SDS011;11874;48.228;11.684;2023-06-26T12:11:53;5.32;;;4.70;;
23402;SDS011;11874;48.228;11.684;2023-06-26T12:14:28;5.28;;;4.28;;
23402;SDS011;11874;48.228;11.684;2023-06-26T12:16:59;5.20;;;4.70;;
23402;SDS011;11874;48.228;11.684;2023-06-26T12:19:33;5.90;;;4.85;;
23402;SDS011;11874;48.228;11.684;2023-06-26T12:22:07;5.47;;;4.53;;
23402;SDS011;11874;48.228;11.684;2023-06-26T12:24:40;5.32;;;4.60;;
23402;SDS011;11874;48.228;11.684;2023-06-26T12:27:09;5.43;;;4.82;;
23402;SDS011;11874;48.228;11.684;2023-06-26T12:29:40;5.60;;;4.47;;
23402;SDS011;11874;48.228;11.684;2023-06-26T12:32:12;6.72;;;4.90;;
23402;SDS011;11874;48.228;11.684;2023-06-26T12:34:41;5.47;;;4.88;;
23402;SDS011;11874;48.228;11.684;2023-06-26T12:37:16;7.00;;;4.70;;
23402;SDS011;11874;48.228;11.684;2023-06-26T12:39:49;5.75;;;4.88;;
23402;SDS011;11874;48.228;11.684;2023-06-26T12:42:21;5.28;;;4.57;;
23402;SDS011;11874;48.228;11.684;2023-06-26T12:44:50;5.80;;;4.85;;
23402;SDS011;11874;48.228;11.684;2023-06-26T12:47:22;6.65;;;4.70;;
23402;SDS011;11874;48.228;11.684;2023-06-26T12:49:51;5.10;;;4.60;;
23402;SDS011;11874;48.228;11.684;2023-06-26T12:52:20;5.68;;;4.53;;
23402;SDS011;11874;48.228;11.684;2023-06-26T12:54:52;5.00;;;4.50;;
23402;SDS011;11874;48.228;11.684;2023-06-26T12:57:22;5.70;;;4.45;;
23402;SDS011;11874;48.228;11.684;2023-06-26T12:59:50;5.95;;;4.90;;
23402;SDS011;11874;48.228;11.684;2023-06-26T13:02:21;5.40;;;4.25;;
23402;SDS011;11874;48.228;11.684;2023-06-26T13:04:49;5.15;;;4.65;;
23402;SDS011;11874;48.228;11.684;2023-06-26T13:07:17;5.45;;;4.93;;
23402;SDS011;11874;48.228;11.684;2023-06-26T13:09:45;6.22;;;4.38;;
23402;SDS011;11874;48.228;11.684;2023-06-26T13:12:16;6.28;;;4.53;;
23402;SDS011;11874;48.228;11.684;2023-06-26T13:14:44;5.88;;;4.75;;
23402;SDS011;11874;48.228;11.684;2023-06-26T13:17:12;5.20;;;4.70;;
23402;SDS011;11874;48.228;11.684;2023-06-26T13:19:40;6.15;;;5.03;;
23402;SDS011;11874;48.228;11.684;2023-06-26T13:22:11;5.83;;;4.80;;
23402;SDS011;11874;48.228;11.684;2023-06-26T13:24:39;6.82;;;5.07;;
23402;SDS011;11874;48.228;11.684;2023-06-26T13:27:07;5.82;;;5.05;;
23402;SDS011;11874;48.228;11.684;2023-06-26T13:29:37;5.97;;;4.90;;
23402;SDS011;11874;48.228;11.684;2023-06-26T13:32:05;5.25;;;4.75;;
23402;SDS011;11874;48.228;11.684;2023-06-26T13:34:34;7.10;;;5.03;;
23402;SDS011;11874;48.228;11.684;2023-06-26T13:37:02;7.78;;;4.90;;
23402;SDS011;11874;48.228;11.684;2023-06-26T13:39:30;5.20;;;4.63;;
23402;SDS011;11874;48.228;11.684;2023-06-26T13:41:58;7.72;;;5.13;;
23402;SDS011;11874;48.228;11.684;2023-06-26T13:44:27;7.03;;;5.40;;
23402;SDS011;11874;48.228;11.684;2023-06-26T13:47:12;6.32;;;5.22;;
23402;SDS011;11874;48.228;11.684;2023-06-26T13:49:41;9.15;;;5.25;;
23402;SDS011;11874;48.228;11.684;2023-06-26T13:52:09;5.50;;;4.70;;
23402;SDS011;11874;48.228;11.684;2023-06-26T13:54:37;5.32;;;4.82;;
23402;SDS011;11874;48.228;11.684;2023-06-26T13:57:06;9.15;;;5.10;;
23402;SDS011;11874;48.228;11.684;2023-06-26T13:59:36;5.20;;;4.70;;
23402;SDS011;11874;48.228;11.684;2023-06-26T14:02:05;5.60;;;4.67;;
23402;SDS011;11874;48.228;11.684;2023-06-26T14:04:35;5.60;;;4.85;;
23402;SDS011;11874;48.228;11.684;2023-06-26T14:07:04;6.68;;;4.75;;
23402;SDS011;11874;48.228;11.684;2023-06-26T14:09:33;6.65;;;4.97;;
23402;SDS011;11874;48.228;11.684;2023-06-26T14:12:01;6.65;;;5.25;;
23402;SDS011;11874;48.228;11.684;2023-06-26T14:14:30;5.45;;;4.78;;
23402;SDS011;11874;48.228;11.684;2023-06-26T14:16:58;5.20;;;4.63;;
23402;SDS011;11874;48.228;11.684;2023-06-26T14:19:26;7.65;;;4.95;;
23402;SDS011;11874;48.228;11.684;2023-06-26T14:21:55;4.90;;;4.38;;
23402;SDS011;11874;48.228;11.684;2023-06-26T14:24:24;5.97;;;5.05;;
23402;SDS011;11874;48.228;11.684;2023-06-26T14:26:52;5.80;;;5.20;;
23402;SDS011;11874;48.228;11.684;2023-06-26T14:29:20;5.88;;;5.05;;
23402;SDS011;11874;48.228;11.684;2023-06-26T14:31:49;6.15;;;5.18;;
23402;SDS011;11874;48.228;11.684;2023-06-26T14:34:21;5.45;;;4.80;;
23402;SDS011;11874;48.228;11.684;2023-06-26T14:36:49;5.10;;;4.47;;
23402;SDS011;11874;48.228;11.684;2023-06-26T14:39:19;5.20;;;4.68;;
23402;SDS011;11874;48.228;11.684;2023-06-26T14:41:48;5.45;;;4.82;;
23402;SDS011;11874;48.228;11.684;2023-06-26T14:44:16;5.25;;;4.78;;
23402;SDS011;11874;48.228;11.684;2023-06-26T14:46:45;7.10;;;5.10;;
23402;SDS011;11874;48.228;11.684;2023-06-26T14:49:13;5.00;;;4.50;;
23402;SDS011;11874;48.228;11.684;2023-06-26T14:51:41;4.50;;;4.10;;
23402;SDS011;11874;48.228;11.684;2023-06-26T14:54:09;5.28;;;4.78;;
23402;SDS011;11874;48.228;11.684;2023-06-26T14:56:39;6.30;;;5.38;;
23402;SDS011;11874;48.228;11.684;2023-06-26T14:59:07;5.82;;;5.32;;
23402;SDS011;11874;48.228;11.684;2023-06-26T15:05:34;4.93;;;4.47;;
23402;SDS011;11874;48.228;11.684;2023-06-26T15:08:02;6.07;;;4.78;;
23402;SDS011;11874;48.228;11.684;2023-06-26T15:10:30;5.80;;;5.20;;
23402;SDS011;11874;48.228;11.684;2023-06-26T15:13:01;5.40;;;4.88;;
23402;SDS011;11874;48.228;11.684;2023-06-26T15:15:29;5.07;;;4.57;;
23402;SDS011;11874;48.228;11.684;2023-06-26T15:17:57;5.07;;;4.57;;
23402;SDS011;11874;48.228;11.684;2023-06-26T15:20:25;5.13;;;4.60;;
23402;SDS011;11874;48.228;11.684;2023-06-26T15:22:54;5.72;;;4.82;;
23402;SDS011;11874;48.228;11.684;2023-06-26T15:25:22;6.97;;;4.93;;
23402;SDS011;11874;48.228;11.684;2023-06-26T15:27:51;6.18;;;4.85;;
23402;SDS011;11874;48.228;11.684;2023-06-26T15:30:20;5.00;;;4.40;;
23402;SDS011;11874;48.228;11.684;2023-06-26T15:32:48;5.10;;;4.60;;
23402;SDS011;11874;48.228;11.684;2023-06-26T15:35:17;5.28;;;4.78;;
23402;SDS011;11874;48.228;11.684;2023-06-26T15:37:45;5.40;;;4.88;;
23402;SDS011;11874;48.228;11.684;2023-06-26T15:40:13;7.32;;;5.45;;
23402;SDS011;11874;48.228;11.684;2023-06-26T15:42:45;7.13;;;5.60;;
23402;SDS011;11874;48.228;11.684;2023-06-26T15:45:14;5.72;;;5.15;;
23402;SDS011;11874;48.228;11.684;2023-06-26T15:47:45;6.43;;;5.63;;
23402;SDS011;11874;48.228;11.684;2023-06-26T15:50:14;6.97;;;5.00;;
23402;SDS011;11874;48.228;11.684;2023-06-26T15:52:42;7.30;;;5.40;;
23402;SDS011;11874;48.228;11.684;2023-06-26T15:55:10;6.40;;;5.38;;
23402;SDS011;11874;48.228;11.684;2023-06-26T15:57:39;7.07;;;5.57;;
23402;SDS011;11874;48.228;11.684;2023-06-26T16:00:07;5.10;;;4.60;;
23402;SDS011;11874;48.228;11.684;2023-06-26T16:02:38;5.80;;;5.00;;
23402;SDS011;11874;48.228;11.684;2023-06-26T16:05:10;6.87;;;5.23;;
23402;SDS011;11874;48.228;11.684;2023-06-26T16:07:38;5.78;;;4.80;;
23402;SDS011;11874;48.228;11.684;2023-06-26T16:10:23;5.45;;;4.93;;
23402;SDS011;11874;48.228;11.684;2023-06-26T16:12:52;6.75;;;5.50;;
23402;SDS011;11874;48.228;11.684;2023-06-26T16:15:21;7.07;;;5.15;;
23402;SDS011;11874;48.228;11.684;2023-06-26T16:17:50;7.22;;;5.75;;
23402;SDS011;11874;48.228;11.684;2023-06-26T16:20:20;7.00;;;5.30;;
23402;SDS011;11874;48.228;11.684;2023-06-26T16:22:48;6.38;;;5.40;;
23402;SDS011;11874;48.228;11.684;2023-06-26T16:25:16;7.90;;;5.32;;
23402;SDS011;11874;48.228;11.684;2023-06-26T16:27:44;5.57;;;4.57;;
23402;SDS011;11874;48.228;11.684;2023-06-26T16:30:15;5.57;;;4.97;;
23402;SDS011;11874;48.228;11.684;2023-06-26T16:32:44;5.57;;;5.00;;
23402;SDS011;11874;48.228;11.684;2023-06-26T16:35:12;6.55;;;5.53;;
23402;SDS011;11874;48.228;11.684;2023-06-26T16:37:41;7.85;;;5.88;;
23402;SDS011;11874;48.228;11.684;2023-06-26T16:40:10;8.25;;;5.65;;
23402;SDS011;11874;48.228;11.684;2023-06-26T16:42:38;6.65;;;5.13;;
23402;SDS011;11874;48.228;11.684;2023-06-26T16:45:07;6.60;;;5.90;;
23402;SDS011;11874;48.228;11.684;2023-06-26T16:47:35;6.30;;;5.45;;
23402;SDS011;11874;48.228;11.684;2023-06-26T16:50:06;6.55;;;5.53;;
23402;SDS011;11874;48.228;11.684;2023-06-26T16:52:34;6.82;;;5.25;;
23402;SDS011;11874;48.228;11.684;2023-06-26T16:55:04;9.10;;;5.20;;
23402;SDS011;11874;48.228;11.684;2023-06-26T16:57:33;7.80;;;5.47;;
23402;SDS011;11874;48.228;11.684;2023-06-26T17:00:01;7.25;;;5.22;;
23402;SDS011;11874;48.228;11.684;2023-06-26T17:02:30;5.72;;;5.13;;
23402;SDS011;11874;48.228;11.684;2023-06-26T17:04:58;7.93;;;5.68;;
23402;SDS011;11874;48.228;11.684;2023-06-26T17:07:26;5.47;;;4.97;;
23402;SDS011;11874;48.228;11.684;2023-06-26T17:09:55;6.97;;;5.43;;
23402;SDS011;11874;48.228;11.684;2023-06-26T17:12:25;7.40;;;5.45;;
23402;SDS011;11874;48.228;11.684;2023-06-26T17:14:54;7.70;;;5.55;;
23402;SDS011;11874;48.228;11.684;2023-06-26T17:17:22;9.15;;;5.43;;
23402;SDS011;11874;48.228;11.684;2023-06-26T17:19:51;7.45;;;5.78;;
23402;SDS011;11874;48.228;11.684;2023-06-26T17:22:20;9.30;;;5.60;;
23402;SDS011;11874;48.228;11.684;2023-06-26T17:24:49;8.38;;;5.60;;
23402;SDS011;11874;48.228;11.684;2023-06-26T17:27:17;8.27;;;6.32;;
23402;SDS011;11874;48.228;11.684;2023-06-26T17:29:51;7.78;;;5.80;;
23402;SDS011;11874;48.228;11.684;2023-06-26T17:32:19;9.90;;;5.50;;
23402;SDS011;11874;48.228;11.684;2023-06-26T17:34:48;7.00;;;6.30;;
23402;SDS011;11874;48.228;11.684;2023-06-26T17:37:16;7.45;;;6.00;;
23402;SDS011;11874;48.228;11.684;2023-06-26T17:39:44;6.55;;;5.85;;
23402;SDS011;11874;48.228;11.684;2023-06-26T17:42:12;7.50;;;5.93;;
23402;SDS011;11874;48.228;11.684;2023-06-26T17:44:41;6.80;;;5.93;;
23402;SDS011;11874;48.228;11.684;2023-06-26T17:47:10;9.38;;;5.80;;
23402;SDS011;11874;48.228;11.684;2023-06-26T17:49:38;7.57;;;5.80;;
23402;SDS011;11874;48.228;11.684;2023-06-26T17:52:06;8.07;;;5.32;;
23402;SDS011;11874;48.228;11.684;2023-06-26T17:54:35;6.72;;;4.97;;
23402;SDS011;11874;48.228;11.684;2023-06-26T17:57:03;6.80;;;4.88;;
23402;SDS011;11874;48.228;11.684;2023-06-26T17:59:31;6.50;;;5.00;;
23402;SDS011;11874;48.228;11.684;2023-06-26T18:01:59;8.18;;;4.88;;
23402;SDS011;11874;48.228;11.684;2023-06-26T18:04:32;7.25;;;5.25;;
23402;SDS011;11874;48.228;11.684;2023-06-26T18:07:00;5.15;;;4.18;;
23402;SDS011;11874;48.228;11.684;2023-06-26T18:09:28;6.53;;;4.68;;
23402;SDS011;11874;48.228;11.684;2023-06-26T18:11:56;5.95;;;4.60;;
23402;SDS011;11874;48.228;11.684;2023-06-26T18:14:24;7.13;;;5.40;;
23402;SDS011;11874;48.228;11.684;2023-06-26T18:16:52;6.45;;;4.93;;
23402;SDS011;11874;48.228;11.684;2023-06-26T18:19:20;5.63;;;5.05;;
23402;SDS011;11874;48.228;11.684;2023-06-26T18:21:49;6.18;;;5.25;;
23402;SDS011;11874;48.228;11.684;2023-06-26T18:24:17;6.90;;;4.88;;
23402;SDS011;11874;48.228;11.684;2023-06-26T18:26:48;7.55;;;5.38;;
23402;SDS011;11874;48.228;11.684;2023-06-26T18:29:16;6.80;;;4.88;;
23402;SDS011;11874;48.228;11.684;2023-06-26T18:31:44;6.40;;;5.15;;
23402;SDS011;11874;48.228;11.684;2023-06-26T18:34:12;7.00;;;5.13;;
23402;SDS011;11874;48.228;11.684;2023-06-26T18:36:40;6.88;;;5.15;;
23402;SDS011;11874;48.228;11.684;2023-06-26T18:39:09;7.75;;;5.55;;
23402;SDS011;11874;48.228;11.684;2023-06-26T18:41:38;5.97;;;4.65;;
23402;SDS011;11874;48.228;11.684;2023-06-26T18:44:06;6.45;;;5.55;;
23402;SDS011;11874;48.228;11.684;2023-06-26T18:46:34;8.85;;;5.47;;
23402;SDS011;11874;48.228;11.684;2023-06-26T18:49:02;7.20;;;5.15;;
23402;SDS011;11874;48.228;11.684;2023-06-26T18:51:31;6.75;;;4.97;;
23402;SDS011;11874;48.228;11.684;2023-06-26T18:54:00;6.93;;;5.35;;
23402;SDS011;11874;48.228;11.684;2023-06-26T18:56:31;8.57;;;5.75;;
23402;SDS011;11874;48.228;11.684;2023-06-26T18:59:00;7.07;;;5.15;;
23402;SDS011;11874;48.228;11.684;2023-06-26T19:01:29;5.97;;;4.90;;
23402;SDS011;11874;48.228;11.684;2023-06-26T19:03:57;6.45;;;5.47;;
23402;SDS011;11874;48.228;11.684;2023-06-26T19:06:25;6.63;;;5.78;;
23402;SDS011;11874;48.228;11.684;2023-06-26T19:08:53;8.13;;;5.88;;
23402;SDS011;11874;48.228;11.684;2023-06-26T19:11:21;9.35;;;6.00;;
23402;SDS011;11874;48.228;11.684;2023-06-26T19:13:50;6.90;;;6.20;;
23402;SDS011;11874;48.228;11.684;2023-06-26T19:16:18;7.03;;;5.53;;
23402;SDS011;11874;48.228;11.684;2023-06-26T19:18:46;7.85;;;6.30;;
23402;SDS011;11874;48.228;11.684;2023-06-26T19:21:14;9.25;;;6.00;;
23402;SDS011;11874;48.228;11.684;2023-06-26T19:23:42;7.75;;;5.75;;
23402;SDS011;11874;48.228;11.684;2023-06-26T19:26:09;6.68;;;5.80;;
23402;SDS011;11874;48.228;11.684;2023-06-26T19:28:38;8.70;;;6.25;;
23402;SDS011;11874;48.228;11.684;2023-06-26T19:31:08;6.65;;;5.60;;
23402;SDS011;11874;48.228;11.684;2023-06-26T19:33:36;6.82;;;5.72;;
23402;SDS011;11874;48.228;11.684;2023-06-26T19:36:04;10.55;;;6.00;;
23402;SDS011;11874;48.228;11.684;2023-06-26T19:38:32;6.65;;;5.55;;
23402;SDS011;11874;48.228;11.684;2023-06-26T19:41:00;7.15;;;5.57;;
23402;SDS011;11874;48.228;11.684;2023-06-26T19:43:28;8.35;;;5.90;;
23402;SDS011;11874;48.228;11.684;2023-06-26T19:45:56;6.60;;;5.18;;
23402;SDS011;11874;48.228;11.684;2023-06-26T19:48:27;9.30;;;5.70;;
23402;SDS011;11874;48.228;11.684;2023-06-26T19:50:56;9.02;;;5.32;;
23402;SDS011;11874;48.228;11.684;2023-06-26T19:53:24;7.72;;;5.55;;
23402;SDS011;11874;48.228;11.684;2023-06-26T19:55:54;6.40;;;5.13;;
23402;SDS011;11874;48.228;11.684;2023-06-26T19:58:22;6.38;;;5.18;;
23402;SDS011;11874;48.228;11.684;2023-06-26T20:00:50;7.70;;;5.57;;
23402;SDS011;11874;48.228;11.684;2023-06-26T20:03:17;7.93;;;5.35;;
23402;SDS011;11874;48.228;11.684;2023-06-26T20:05:47;7.97;;;5.60;;
23402;SDS011;11874;48.228;11.684;2023-06-26T20:08:18;7.75;;;5.45;;
23402;SDS011;11874;48.228;11.684;2023-06-26T20:10:46;6.85;;;5.30;;
23402;SDS011;11874;48.228;11.684;2023-06-26T20:13:15;8.23;;;5.38;;
23402;SDS011;11874;48.228;11.684;2023-06-26T20:15:43;8.25;;;5.85;;
23402;SDS011;11874;48.228;11.684;2023-06-26T20:18:11;6.35;;;4.95;;
23402;SDS011;11874;48.228;11.684;2023-06-26T20:20:39;7.88;;;6.15;;
23402;SDS011;11874;48.228;11.684;2023-06-26T20:23:08;7.45;;;4.95;;
23402;SDS011;11874;48.228;11.684;2023-06-26T20:25:36;6.22;;;5.40;;
23402;SDS011;11874;48.228;11.684;2023-06-26T20:28:05;8.10;;;5.53;;
23402;SDS011;11874;48.228;11.684;2023-06-26T20:30:33;8.52;;;5.38;;
23402;SDS011;11874;48.228;11.684;2023-06-26T20:33:01;8.00;;;5.80;;
23402;SDS011;11874;48.228;11.684;2023-06-26T20:35:29;7.28;;;5.60;;
23402;SDS011;11874;48.228;11.684;2023-06-26T20:37:57;7.78;;;5.15;;
23402;SDS011;11874;48.228;11.684;2023-06-26T20:40:27;7.63;;;5.60;;
23402;SDS011;11874;48.228;11.684;2023-06-26T20:42:55;6.97;;;5.43;;
23402;SDS011;11874;48.228;11.684;2023-06-26T20:45:24;8.27;;;5.50;;
23402;SDS011;11874;48.228;11.684;2023-06-26T20:47:53;6.57;;;5.00;;
23402;SDS011;11874;48.228;11.684;2023-06-26T20:50:22;8.00;;;5.57;;
23402;SDS011;11874;48.228;11.684;2023-06-26T20:52:50;6.57;;;5.20;;
23402;SDS011;11874;48.228;11.684;2023-06-26T20:55:19;7.97;;;5.10;;
23402;SDS011;11874;48.228;11.684;2023-06-26T20:57:49;7.80;;;5.15;;
23402;SDS011;11874;48.228;11.684;2023-06-26T21:00:17;7.18;;;5.40;;
23402;SDS011;11874;48.228;11.684;2023-06-26T21:02:46;9.77;;;5.40;;
23402;SDS011;11874;48.228;11.684;2023-06-26T21:05:14;8.80;;;5.20;;
23402;SDS011;11874;48.228;11.684;2023-06-26T21:07:42;8.07;;;5.40;;
23402;SDS011;11874;48.228;11.684;2023-06-26T21:10:10;8.50;;;5.32;;
23402;SDS011;11874;48.228;11.684;2023-06-26T21:12:38;7.90;;;4.70;;
23402;SDS011;11874;48.228;11.684;2023-06-26T21:15:14;7.13;;;5.05;;
23402;SDS011;11874;48.228;11.684;2023-06-26T21:17:44;6.57;;;5.13;;
23402;SDS011;11874;48.228;11.684;2023-06-26T21:20:15;8.77;;;5.38;;
23402;SDS011;11874;48.228;11.684;2023-06-26T21:22:55;7.97;;;5.00;;
23402;SDS011;11874;48.228;11.684;2023-06-26T21:25:27;8.18;;;5.53;;
23402;SDS011;11874;48.228;11.684;2023-06-26T21:28:02;6.25;;;5.10;;
23402;SDS011;11874;48.228;11.684;2023-06-26T21:30:39;7.10;;;4.93;;
23402;SDS011;11874;48.228;11.684;2023-06-26T21:33:10;8.80;;;5.07;;
23402;SDS011;11874;48.228;11.684;2023-06-26T21:35:44;8.05;;;5.10;;